GB-0025 weather

Dorset Gliding Club (Eyres Field)
England, United Kingdom

Public forecast

Using degrees Celsius for public forecast. Weather courtesy of forecast.io.

Closest aviation weather report (METAR) to Dorset Gliding Club (Eyres Field)

Report is more than 2 hours old.

Closest report is Bournemouth Airport, 14.9 nm (27.7 km) ENE. Retrieved 2020/08/06 21:50 UTC (4 hours ago):

EGHH 062150Z 00000KT CAVOK 16/14 Q1018

Closest aviation forecast (TAF) to Dorset Gliding Club (Eyres Field)

Forecast is more than 12 hours old.

Closest forecast is Bournemouth Airport, 14.9 nm (27.7 km) ENE. Retrieved 2020/02/21 21:06 UTC (6 months ago):

TAF EGHH 210200Z 2021/2123 CNL